地図

経路データ

SID SEASON NUMBER BASIN SUBBASIN NAME ISO_TIME NATURE LAT LON WMO_WIND WMO_PRES WMO_AGENCY TRACK_TYPE DIST2LAND LANDFALL IFLAG USA_AGENCY USA_ATCF_ID USA_LAT USA_LON USA_RECORD USA_STATUS USA_WIND USA_PRES USA_SSHS USA_R34_NE USA_R34_SE USA_R34_SW USA_R34_NW USA_R50_NE USA_R50_SE USA_R50_SW USA_R50_NW USA_R64_NE USA_R64_SE USA_R64_SW USA_R64_NW USA_POCI USA_ROCI USA_RMW USA_EYE TOKYO_LAT TOKYO_LON TOKYO_GRADE TOKYO_WIND TOKYO_PRES TOKYO_R50_DIR TOKYO_R50_LONG TOKYO_R50_SHORT TOKYO_R30_DIR TOKYO_R30_LONG TOKYO_R30_SHORT TOKYO_LAND CMA_LAT CMA_LON CMA_CAT CMA_WIND CMA_PRES HKO_LAT HKO_LON HKO_CAT HKO_WIND HKO_PRES NEWDELHI_LAT NEWDELHI_LON NEWDELHI_GRADE NEWDELHI_WIND NEWDELHI_PRES NEWDELHI_CI NEWDELHI_DP NEWDELHI_POCI REUNION_LAT REUNION_LON REUNION_TYPE REUNION_WIND REUNION_PRES REUNION_TNUM REUNION_CI REUNION_RMW REUNION_R34_NE REUNION_R34_SE REUNION_R34_SW REUNION_R34_NW REUNION_R50_NE REUNION_R50_SE REUNION_R50_SW REUNION_R50_NW REUNION_R64_NE REUNION_R64_SE REUNION_R64_SW REUNION_R64_NW BOM_LAT BOM_LON BOM_TYPE BOM_WIND BOM_PRES BOM_TNUM BOM_CI BOM_RMW BOM_R34_NE BOM_R34_SE BOM_R34_SW BOM_R34_NW BOM_R50_NE BOM_R50_SE BOM_R50_SW BOM_R50_NW BOM_R64_NE BOM_R64_SE BOM_R64_SW BOM_R64_NW BOM_ROCI BOM_POCI BOM_EYE BOM_POS_METHOD BOM_PRES_METHOD NADI_LAT NADI_LON NADI_CAT NADI_WIND NADI_PRES WELLINGTON_LAT WELLINGTON_LON WELLINGTON_WIND WELLINGTON_PRES DS824_LAT DS824_LON DS824_STAGE DS824_WIND DS824_PRES TD9636_LAT TD9636_LON TD9636_STAGE TD9636_WIND TD9636_PRES TD9635_LAT TD9635_LON TD9635_WIND TD9635_PRES TD9635_ROCI NEUMANN_LAT NEUMANN_LON NEUMANN_CLASS NEUMANN_WIND NEUMANN_PRES MLC_LAT MLC_LON MLC_CLASS MLC_WIND MLC_PRES USA_GUST BOM_GUST BOM_GUST_PER REUNION_GUST REUNION_GUST_PER USA_SEAHGT USA_SEARAD_NE USA_SEARAD_SE USA_SEARAD_SW USA_SEARAD_NW STORM_SPEED STORM_DIR
1968251N08324 1968 85 NA NA NOT_NAMED 1968-09-07 00:00:00 TS 8.10000 -36.5000 25 hurdat_atl main 1285 1265 O_____________ hurdat_atl AL071968 8.10000 -36.5000 TD 25 -1 14 270
1968251N08324 1968 85 NA NA NOT_NAMED 1968-09-07 03:00:00 TS 8.10033 -37.2300 main 1265 1250 P_____________ AL071968 8.10033 -37.2300 TD 25 -1 14 270
1968251N08324 1968 85 NA NA NOT_NAMED 1968-09-07 06:00:00 TS 8.10000 -37.9000 25 hurdat_atl main 1250 1242 O_____________ hurdat_atl AL071968 8.10000 -37.9000 TD 25 -1 12 270
1968251N08324 1968 85 NA NA NOT_NAMED 1968-09-07 09:00:00 TS 8.09983 -38.4725 main 1241 1235 P_____________ AL071968 8.09983 -38.4725 TD 25 -1 11 270
1968251N08324 1968 85 NA NA NOT_NAMED 1968-09-07 12:00:00 TS 8.10000 -39.0000 25 hurdat_atl main 1235 1231 O_____________ hurdat_atl AL071968 8.10000 -39.0000 TD 25 -1 11 270
1968251N08324 1968 85 NA NA NOT_NAMED 1968-09-07 15:00:00 TS 8.09246 -39.5575 main 1226 1200 P_____________ AL071968 8.09246 -39.5575 TD 27 -1 11 270
1968251N08324 1968 85 NA NA NOT_NAMED 1968-09-07 18:00:00 TS 8.10000 -40.1000 30 hurdat_atl main 1200 1181 O_____________ hurdat_atl AL071968 8.10000 -40.1000 TD 30 -1 10 273
1968251N08324 1968 85 NA NA NOT_NAMED 1968-09-07 21:00:00 TS 8.14963 -40.5475 main 1181 1165 P_____________ AL071968 8.14963 -40.5475 TD 30 -1 10 276
1968251N08324 1968 85 NA NA NOT_NAMED 1968-09-08 00:00:00 TS 8.20000 -41.1000 30 hurdat_atl main 1165 1127 O_____________ hurdat_atl AL071968 8.20000 -41.1000 TD 30 -1 14 272
1968251N08324 1968 85 NA NA NOT_NAMED 1968-09-08 03:00:00 TS 8.20044 -41.9926 main 1117 1026 P_____________ AL071968 8.20044 -41.9926 TD 30 -1 18 270
1968251N08324 1968 85 NA NA NOT_NAMED 1968-09-08 06:00:00 TS 8.20000 -42.9000 30 hurdat_atl main 1026 977 O_____________ hurdat_atl AL071968 8.20000 -42.9000 TD 30 -1 15 271
1968251N08324 1968 85 NA NA NOT_NAMED 1968-09-08 09:00:00 TS 8.23453 -43.4725 main 967 923 P_____________ AL071968 8.23453 -43.4725 TD 30 -1 11 275
1968251N08324 1968 85 NA NA NOT_NAMED 1968-09-08 12:00:00 TS 8.30000 -44.0000 30 hurdat_atl main 923 862 O_____________ hurdat_atl AL071968 8.30000 -44.0000 TD 30 -1 13 277
1968251N08324 1968 85 NA NA NOT_NAMED 1968-09-08 15:00:00 TS 8.38505 -44.7275 main 862 795 P_____________ AL071968 8.38505 -44.7275 TD 30 -1 15 278
1968251N08324 1968 85 NA NA NOT_NAMED 1968-09-08 18:00:00 TS 8.50000 -45.5000 30 hurdat_atl main 795 741 O_____________ hurdat_atl AL071968 8.50000 -45.5000 TD 30 -1 15 280
1968251N08324 1968 85 NA NA NOT_NAMED 1968-09-08 21:00:00 TS 8.65741 -46.2224 main 748 700 P_____________ AL071968 8.65741 -46.2224 TD 30 -1 14 282
1968251N08324 1968 85 NA NA NOT_NAMED 1968-09-09 00:00:00 TS 8.80000 -46.9000 30 hurdat_atl main 700 664 O_____________ hurdat_atl AL071968 8.80000 -46.9000 TD 30 -1 13 282
1968251N08324 1968 85 NA NA NOT_NAMED 1968-09-09 03:00:00 TS 8.93989 -47.5298 main 664 625 P_____________ AL071968 8.93989 -47.5298 TD 27 -1 12 275
1968251N08324 1968 85 NA NA NOT_NAMED 1968-09-09 06:00:00 TS 8.90000 -48.1000 25 hurdat_atl main 625 547 O_____________ hurdat_atl AL071968 8.90000 -48.1000 TD 25 -1 12 242
1968251N08324 1968 85 NA NA NOT_NAMED 1968-09-09 09:00:00 TS 8.38235 -48.6082 main 547 480 P_____________ AL071968 8.38235 -48.6082 TD 25 -1 13 228
1968251N08324 1968 85 NA NA NOT_NAMED 1968-09-09 12:00:00 TS 8.00000 -49.1000 25 hurdat_atl main 480 475 O_____________ hurdat_atl AL071968 8.00000 -49.1000 TD 25 -1 10 272
1968251N08324 1968 85 NA NA NOT_NAMED 1968-09-09 15:00:00 TS 8.42469 -49.5894 main 488 488 P_____________ AL071968 8.42469 -49.5894 TD 25 -1 15 313
1968251N08324 1968 85 NA NA NOT_NAMED 1968-09-09 18:00:00 TS 9.00000 -50.2000 25 hurdat_atl main 501 469 O_____________ hurdat_atl AL071968 9.00000 -50.2000 TD 25 -1 16 294
1968251N08324 1968 85 NA NA NOT_NAMED 1968-09-09 21:00:00 TS 9.09540 -51.0930 main 465 429 P_____________ AL071968 9.09540 -51.0930 TD 25 -1 18 273
1968251N08324 1968 85 NA NA NOT_NAMED 1968-09-10 00:00:00 TS 9.10000 -52.0000 25 hurdat_atl main 429 414 O_____________ hurdat_atl AL071968 9.10000 -52.0000 TD 25 -1 15 277
1968251N08324 1968 85 NA NA NOT_NAMED 1968-09-10 03:00:00 TS 9.27710 -52.6375 main 419 410 P_____________ AL071968 9.27710 -52.6375 TD 25 -1 13 289
1968251N08324 1968 85 NA NA NOT_NAMED 1968-09-10 06:00:00 TS 9.50000 -53.2000 25 hurdat_atl main 418 415 O_____________ hurdat_atl AL071968 9.50000 -53.2000 TD 25 -1 13 290
1968251N08324 1968 85 NA NA NOT_NAMED 1968-09-10 09:00:00 TS 9.70792 -53.8249 main 428 427 P_____________ AL071968 9.70792 -53.8249 TD 25 -1 13 287
1968251N08324 1968 85 NA NA NOT_NAMED 1968-09-10 12:00:00 TS 9.90000 -54.5000 25 hurdat_atl main 448 O_____________ hurdat_atl AL071968 9.90000 -54.5000 TD 25 -1 14 286

IBTrACS Databaseについて

本データベースは、米国NOAAが公開する1842年以降の世界の熱帯低気圧のベストトラックデータアーカイブInternational Best Track Archive for Climate Stewardship (IBTrACS)を、ウェブで閲覧しやすい形式に変換したものです。

最終更新日:2021-12-06